Flight Number: EUR2340 Duration: 3:00
Departure: Antalya (LTAI) at 06:00 Distance: 1080 Nm
Arrival: Munich Int'l (EDDM) at 09:00 Equipment: A321

Weather Information
Antalya, Turkey (LTAI) 36-42N 030-44E 57M Sep 21, 2017 - 04:50 PM EDT / 2017.09.21 2050 UTC
Wind: from the NNE (030 degrees) at 7 MPH (6 KT):0
Visibility: greater than 7 mile(s):0
Sky conditions: partly cloudy Temperature: 77 F (25 C) Dew Point: 68 F (20 C) Relative Humidity: 73% Pressure (altimeter): 29.83 in. Hg (1010 hPa)
ob: LTAI 212050Z 03006KT 9999 SCT030 25/20 Q1010 NOSIG cycle: 21
Sunrise: 03:47 Sunset: 15:52 (UTC)

Munchen, Germany (EDDM) 48-21N 011-47E Sep 21, 2017 - 05:20 PM EDT / 2017.09.21 2120 UTC
Wind: from the NNE (030 degrees) at 2 MPH (2 KT):0
Visibility: greater than 7 mile(s):0 Weather: shallow fog Temperature: 42 F (6 C) Dew Point: 41 F (5 C) Relative Humidity: 93% Pressure (altimeter): 30.15 in. Hg (1021 hPa)
ob: EDDM 212120Z 03002KT 9999 MIFG NSC 06/05 Q1021 NOSIG cycle: 21
Sunrise: 05:02 Sunset: 17:08 (UTC)

TAF:2017/09/21 18:27 TAF EDDM 211700Z 2118/2224 VRB03KT CAVOK TEMPO 2200/2208 2000 BCFG PROB30 TEMPO 2202/2207 0400 FG TEMPO 2223/2224 2000 BCFG

Previous Pireps for this route
Date Aircraft Flight time Fuel used Landing rate On time
2015-01-07A32102.5417912-205Charter
2016-01-18A32103.0616984-2No
2016-04-05A32103.3526587-465.38No
2016-09-30A330-20002.3440823-171Charter
(pireps marked green are flown by you)

Route map